sensor_id;sensor_type;location;lat;lon;timestamp;pressure;altitude;pressure_sealevel;temperature;humidity
84841;BME280;75088;53.114;18.040;2024-01-06T00:00:37;100769.00;;;-2.31;75.03
84841;BME280;75088;53.114;18.040;2024-01-06T00:02:04;100773.41;;;-2.29;75.32
84841;BME280;75088;53.114;18.040;2024-01-06T00:03:11;100773.77;;;-2.29;75.12
84841;BME280;75088;53.114;18.040;2024-01-06T00:04:19;100773.94;;;-2.29;75.18
84841;BME280;75088;53.114;18.040;2024-01-06T00:05:26;100774.98;;;-2.29;75.11
84841;BME280;75088;53.114;18.040;2024-01-06T00:06:35;100772.19;;;-2.29;75.01
84841;BME280;75088;53.114;18.040;2024-01-06T00:07:42;100774.30;;;-2.29;75.18
84841;BME280;75088;53.114;18.040;2024-01-06T00:08:49;100772.34;;;-2.30;75.15
84841;BME280;75088;53.114;18.040;2024-01-06T00:09:59;100766.41;;;-2.30;75.31
84841;BME280;75088;53.114;18.040;2024-01-06T00:11:09;100771.13;;;-2.30;75.29
84841;BME280;75088;53.114;18.040;2024-01-06T00:12:16;100769.45;;;-2.28;75.25
84841;BME280;75088;53.114;18.040;2024-01-06T00:13:24;100765.66;;;-2.27;75.43
84841;BME280;75088;53.114;18.040;2024-01-06T00:14:31;100766.55;;;-2.27;75.07
84841;BME280;75088;53.114;18.040;2024-01-06T00:15:38;100769.89;;;-2.26;75.12
84841;BME280;75088;53.114;18.040;2024-01-06T00:16:44;100772.54;;;-2.25;75.13
84841;BME280;75088;53.114;18.040;2024-01-06T00:17:51;100773.98;;;-2.24;75.31
84841;BME280;75088;53.114;18.040;2024-01-06T00:18:58;100770.85;;;-2.24;75.36
84841;BME280;75088;53.114;18.040;2024-01-06T00:20:08;100768.78;;;-2.23;75.56
84841;BME280;75088;53.114;18.040;2024-01-06T00:21:15;100766.88;;;-2.23;75.25
84841;BME280;75088;53.114;18.040;2024-01-06T00:22:22;100769.33;;;-2.23;75.61
84841;BME280;75088;53.114;18.040;2024-01-06T00:23:29;100767.23;;;-2.23;75.06
84841;BME280;75088;53.114;18.040;2024-01-06T00:24:37;100768.12;;;-2.23;75.38
84841;BME280;75088;53.114;18.040;2024-01-06T00:25:44;100766.93;;;-2.22;75.45
84841;BME280;75088;53.114;18.040;2024-01-06T00:26:51;100769.24;;;-2.21;75.33
84841;BME280;75088;53.114;18.040;2024-01-06T00:27:58;100767.37;;;-2.20;75.49
84841;BME280;75088;53.114;18.040;2024-01-06T00:29:05;100763.75;;;-2.18;75.47
84841;BME280;75088;53.114;18.040;2024-01-06T00:30:13;100766.91;;;-2.18;75.45
84841;BME280;75088;53.114;18.040;2024-01-06T00:31:20;100762.05;;;-2.17;75.34
84841;BME280;75088;53.114;18.040;2024-01-06T00:32:27;100760.38;;;-2.16;75.45
84841;BME280;75088;53.114;18.040;2024-01-06T00:33:35;100762.70;;;-2.14;75.52
84841;BME280;75088;53.114;18.040;2024-01-06T00:34:42;100759.91;;;-2.14;75.30
84841;BME280;75088;53.114;18.040;2024-01-06T00:35:49;100759.20;;;-2.14;75.47
84841;BME280;75088;53.114;18.040;2024-01-06T00:36:56;100757.58;;;-2.16;75.34
84841;BME280;75088;53.114;18.040;2024-01-06T00:38:05;100762.45;;;-2.16;75.43
84841;BME280;75088;53.114;18.040;2024-01-06T00:39:12;100763.65;;;-2.16;75.56
84841;BME280;75088;53.114;18.040;2024-01-06T00:40:19;100765.05;;;-2.16;75.55
84841;BME280;75088;53.114;18.040;2024-01-06T00:41:26;100764.39;;;-2.15;75.76
84841;BME280;75088;53.114;18.040;2024-01-06T00:42:33;100767.69;;;-2.16;75.55
84841;BME280;75088;53.114;18.040;2024-01-06T00:43:40;100764.11;;;-2.14;75.64
84841;BME280;75088;53.114;18.040;2024-01-06T00:44:47;100769.16;;;-2.14;75.44
84841;BME280;75088;53.114;18.040;2024-01-06T00:45:54;100770.73;;;-2.14;75.52
84841;BME280;75088;53.114;18.040;2024-01-06T00:47:00;100770.86;;;-2.15;75.59
84841;BME280;75088;53.114;18.040;2024-01-06T00:48:08;100775.23;;;-2.14;75.89
84841;BME280;75088;53.114;18.040;2024-01-06T00:49:15;100776.10;;;-2.14;75.72
84841;BME280;75088;53.114;18.040;2024-01-06T00:50:21;100777.13;;;-2.15;75.58
84841;BME280;75088;53.114;18.040;2024-01-06T00:51:28;100780.60;;;-2.15;75.93
84841;BME280;75088;53.114;18.040;2024-01-06T00:52:36;100776.12;;;-2.14;75.79
84841;BME280;75088;53.114;18.040;2024-01-06T00:53:43;100780.17;;;-2.12;75.77
84841;BME280;75088;53.114;18.040;2024-01-06T00:54:50;100779.71;;;-2.11;75.58
84841;BME280;75088;53.114;18.040;2024-01-06T00:55:56;100777.86;;;-2.10;75.54
84841;BME280;75088;53.114;18.040;2024-01-06T00:57:04;100778.38;;;-2.10;75.69
84841;BME280;75088;53.114;18.040;2024-01-06T00:58:11;100778.75;;;-2.09;75.87
84841;BME280;75088;53.114;18.040;2024-01-06T00:59:19;100781.03;;;-2.09;75.71
84841;BME280;75088;53.114;18.040;2024-01-06T01:00:25;100783.98;;;-2.09;75.73
84841;BME280;75088;53.114;18.040;2024-01-06T01:01:34;100787.98;;;-2.09;75.86
84841;BME280;75088;53.114;18.040;2024-01-06T01:02:41;100787.03;;;-2.11;75.74
84841;BME280;75088;53.114;18.040;2024-01-06T01:03:48;100789.97;;;-2.12;75.73
84841;BME280;75088;53.114;18.040;2024-01-06T01:04:55;100790.98;;;-2.12;75.98
84841;BME280;75088;53.114;18.040;2024-01-06T01:06:03;100793.92;;;-2.13;75.74
84841;BME280;75088;53.114;18.040;2024-01-06T01:07:09;100799.48;;;-2.13;76.02
84841;BME280;75088;53.114;18.040;2024-01-06T01:08:16;100800.73;;;-2.12;75.85
84841;BME280;75088;53.114;18.040;2024-01-06T01:09:23;100801.09;;;-2.12;75.80
84841;BME280;75088;53.114;18.040;2024-01-06T01:10:30;100802.31;;;-2.12;75.91
84841;BME280;75088;53.114;18.040;2024-01-06T01:11:37;100802.80;;;-2.12;75.95
84841;BME280;75088;53.114;18.040;2024-01-06T01:12:44;100802.30;;;-2.12;76.05
84841;BME280;75088;53.114;18.040;2024-01-06T01:13:51;100804.91;;;-2.12;75.84
84841;BME280;75088;53.114;18.040;2024-01-06T01:14:58;100804.52;;;-2.13;76.00
84841;BME280;75088;53.114;18.040;2024-01-06T01:16:08;100804.63;;;-2.15;76.12
84841;BME280;75088;53.114;18.040;2024-01-06T01:17:15;100801.66;;;-2.15;76.18
84841;BME280;75088;53.114;18.040;2024-01-06T01:18:22;100798.71;;;-2.14;75.98
84841;BME280;75088;53.114;18.040;2024-01-06T01:19:29;100800.67;;;-2.13;76.31
84841;BME280;75088;53.114;18.040;2024-01-06T01:20:35;100800.71;;;-2.12;75.90
84841;BME280;75088;53.114;18.040;2024-01-06T01:21:42;100799.86;;;-2.12;76.00
84841;BME280;75088;53.114;18.040;2024-01-06T01:22:49;100802.79;;;-2.09;75.88
84841;BME280;75088;53.114;18.040;2024-01-06T01:23:56;100801.03;;;-2.09;76.16
84841;BME280;75088;53.114;18.040;2024-01-06T01:25:03;100800.54;;;-2.08;75.89
84841;BME280;75088;53.114;18.040;2024-01-06T01:26:13;100802.45;;;-2.08;76.01
84841;BME280;75088;53.114;18.040;2024-01-06T01:27:20;100800.03;;;-2.08;76.02
84841;BME280;75088;53.114;18.040;2024-01-06T01:28:27;100802.94;;;-2.09;76.16
84841;BME280;75088;53.114;18.040;2024-01-06T01:29:34;100800.95;;;-2.11;76.04
84841;BME280;75088;53.114;18.040;2024-01-06T01:30:41;100799.58;;;-2.10;76.31
84841;BME280;75088;53.114;18.040;2024-01-06T01:31:48;100799.79;;;-2.10;76.14
84841;BME280;75088;53.114;18.040;2024-01-06T01:32:55;100798.64;;;-2.08;76.03
84841;BME280;75088;53.114;18.040;2024-01-06T01:34:02;100796.83;;;-2.06;76.06
84841;BME280;75088;53.114;18.040;2024-01-06T01:35:09;100797.06;;;-2.04;75.89
84841;BME280;75088;53.114;18.040;2024-01-06T01:36:16;100798.68;;;-2.03;76.24
84841;BME280;75088;53.114;18.040;2024-01-06T01:37:23;100795.78;;;-2.01;76.19
84841;BME280;75088;53.114;18.040;2024-01-06T01:38:30;100800.78;;;-2.02;76.21
84841;BME280;75088;53.114;18.040;2024-01-06T01:39:39;100808.09;;;-2.02;76.02
84841;BME280;75088;53.114;18.040;2024-01-06T01:40:46;100806.34;;;-2.03;76.27
84841;BME280;75088;53.114;18.040;2024-01-06T01:41:53;100803.89;;;-2.03;76.23
84841;BME280;75088;53.114;18.040;2024-01-06T01:42:59;100806.66;;;-2.04;76.06
84841;BME280;75088;53.114;18.040;2024-01-06T01:44:06;100806.30;;;-2.04;76.13
84841;BME280;75088;53.114;18.040;2024-01-06T01:45:13;100808.22;;;-2.04;75.81
84841;BME280;75088;53.114;18.040;2024-01-06T01:46:20;100809.87;;;-2.02;76.11
84841;BME280;75088;53.114;18.040;2024-01-06T01:47:27;100811.52;;;-2.00;76.02
84841;BME280;75088;53.114;18.040;2024-01-06T01:48:37;100811.21;;;-1.99;76.13
84841;BME280;75088;53.114;18.040;2024-01-06T01:49:44;100808.96;;;-1.98;76.09
84841;BME280;75088;53.114;18.040;2024-01-06T01:50:51;100810.55;;;-1.98;76.22
84841;BME280;75088;53.114;18.040;2024-01-06T01:51:59;100813.66;;;-1.98;75.93
84841;BME280;75088;53.114;18.040;2024-01-06T01:53:06;100816.14;;;-1.97;76.30
84841;BME280;75088;53.114;18.040;2024-01-06T01:54:14;100812.59;;;-1.99;76.00
84841;BME280;75088;53.114;18.040;2024-01-06T01:55:22;100814.66;;;-2.00;76.40
84841;BME280;75088;53.114;18.040;2024-01-06T01:56:30;100813.54;;;-2.01;76.15
84841;BME280;75088;53.114;18.040;2024-01-06T01:57:39;100818.38;;;-2.02;76.21
84841;BME280;75088;53.114;18.040;2024-01-06T01:58:48;100814.35;;;-2.03;76.43
84841;BME280;75088;53.114;18.040;2024-01-06T01:59:55;100820.15;;;-2.01;76.00
84841;BME280;75088;53.114;18.040;2024-01-06T02:01:02;100817.58;;;-2.00;76.07
84841;BME280;75088;53.114;18.040;2024-01-06T02:02:11;100816.06;;;-1.99;76.30
84841;BME280;75088;53.114;18.040;2024-01-06T02:03:19;100812.24;;;-1.99;76.10
84841;BME280;75088;53.114;18.040;2024-01-06T02:04:26;100813.09;;;-1.99;76.00
84841;BME280;75088;53.114;18.040;2024-01-06T02:05:33;100809.37;;;-2.01;76.16
84841;BME280;75088;53.114;18.040;2024-01-06T02:06:40;100813.86;;;-2.02;76.09
84841;BME280;75088;53.114;18.040;2024-01-06T02:07:47;100814.35;;;-2.03;76.17
84841;BME280;75088;53.114;18.040;2024-01-06T02:08:57;100817.65;;;-2.03;76.12
84841;BME280;75088;53.114;18.040;2024-01-06T02:10:06;100816.77;;;-2.03;76.16
84841;BME280;75088;53.114;18.040;2024-01-06T02:11:13;100818.41;;;-2.01;76.05
84841;BME280;75088;53.114;18.040;2024-01-06T02:12:20;100819.29;;;-2.01;75.98
84841;BME280;75088;53.114;18.040;2024-01-06T02:13:34;100826.36;;;-1.99;76.21
84841;BME280;75088;53.114;18.040;2024-01-06T02:14:41;100823.66;;;-1.97;75.88
84841;BME280;75088;53.114;18.040;2024-01-06T02:15:48;100822.48;;;-1.95;76.19
84841;BME280;75088;53.114;18.040;2024-01-06T02:16:55;100821.59;;;-1.96;75.80
84841;BME280;75088;53.114;18.040;2024-01-06T02:18:02;100820.52;;;-1.96;76.00
84841;BME280;75088;53.114;18.040;2024-01-06T02:19:12;100818.75;;;-1.97;76.07
84841;BME280;75088;53.114;18.040;2024-01-06T02:20:20;100813.66;;;-1.98;76.02
84841;BME280;75088;53.114;18.040;2024-01-06T02:21:32;100807.55;;;-1.99;76.07
84841;BME280;75088;53.114;18.040;2024-01-06T02:22:40;100808.02;;;-2.00;76.17
84841;BME280;75088;53.114;18.040;2024-01-06T02:23:48;100812.02;;;-2.01;76.24
84841;BME280;75088;53.114;18.040;2024-01-06T02:24:55;100810.25;;;-2.01;76.14
84841;BME280;75088;53.114;18.040;2024-01-06T02:26:02;100811.48;;;-2.00;76.14
84841;BME280;75088;53.114;18.040;2024-01-06T02:27:10;100811.48;;;-2.01;76.28
84841;BME280;75088;53.114;18.040;2024-01-06T02:28:17;100810.31;;;-1.99;75.97
84841;BME280;75088;53.114;18.040;2024-01-06T02:29:24;100808.83;;;-1.97;76.13
84841;BME280;75088;53.114;18.040;2024-01-06T02:30:30;100809.05;;;-1.96;76.03
84841;BME280;75088;53.114;18.040;2024-01-06T02:31:37;100807.52;;;-1.96;76.08
84841;BME280;75088;53.114;18.040;2024-01-06T02:32:44;100804.19;;;-1.96;76.14
84841;BME280;75088;53.114;18.040;2024-01-06T02:33:51;100805.65;;;-1.98;75.95
84841;BME280;75088;53.114;18.040;2024-01-06T02:34:58;100803.83;;;-2.00;75.88
84841;BME280;75088;53.114;18.040;2024-01-06T02:36:08;100802.91;;;-2.01;76.35
84841;BME280;75088;53.114;18.040;2024-01-06T02:37:15;100803.53;;;-2.03;76.10
84841;BME280;75088;53.114;18.040;2024-01-06T02:38:21;100808.70;;;-2.05;76.19
84841;BME280;75088;53.114;18.040;2024-01-06T02:39:28;100804.52;;;-2.05;76.12
84841;BME280;75088;53.114;18.040;2024-01-06T02:40:35;100806.58;;;-2.06;76.07
84841;BME280;75088;53.114;18.040;2024-01-06T02:41:42;100807.66;;;-2.05;76.17
84841;BME280;75088;53.114;18.040;2024-01-06T02:42:49;100805.10;;;-2.03;76.39
84841;BME280;75088;53.114;18.040;2024-01-06T02:43:56;100807.78;;;-2.02;76.10
84841;BME280;75088;53.114;18.040;2024-01-06T02:45:04;100806.45;;;-2.00;76.10
84841;BME280;75088;53.114;18.040;2024-01-06T02:46:12;100806.80;;;-2.00;76.02
84841;BME280;75088;53.114;18.040;2024-01-06T02:47:19;100808.21;;;-2.00;76.18
84841;BME280;75088;53.114;18.040;2024-01-06T02:48:26;100807.13;;;-2.00;76.08
84841;BME280;75088;53.114;18.040;2024-01-06T02:49:32;100807.67;;;-2.00;75.97
84841;BME280;75088;53.114;18.040;2024-01-06T02:50:39;100803.80;;;-2.01;76.29
84841;BME280;75088;53.114;18.040;2024-01-06T02:51:46;100802.21;;;-2.02;75.98
84841;BME280;75088;53.114;18.040;2024-01-06T02:52:53;100800.88;;;-2.00;76.16
84841;BME280;75088;53.114;18.040;2024-01-06T02:54:00;100801.77;;;-2.00;76.01
84841;BME280;75088;53.114;18.040;2024-01-06T02:55:08;100804.05;;;-1.99;76.32
84841;BME280;75088;53.114;18.040;2024-01-06T02:56:14;100802.50;;;-1.99;76.31
84841;BME280;75088;53.114;18.040;2024-01-06T02:57:21;100801.66;;;-1.98;76.00
84841;BME280;75088;53.114;18.040;2024-01-06T02:58:28;100802.75;;;-1.97;76.14
84841;BME280;75088;53.114;18.040;2024-01-06T02:59:35;100804.50;;;-1.97;75.79
84841;BME280;75088;53.114;18.040;2024-01-06T03:00:42;100805.04;;;-1.96;76.06
84841;BME280;75088;53.114;18.040;2024-01-06T03:01:49;100806.95;;;-1.96;76.30
84841;BME280;75088;53.114;18.040;2024-01-06T03:02:56;100808.31;;;-1.97;76.25
84841;BME280;75088;53.114;18.040;2024-01-06T03:04:03;100810.05;;;-1.97;76.13
84841;BME280;75088;53.114;18.040;2024-01-06T03:05:10;100812.14;;;-1.98;76.47
84841;BME280;75088;53.114;18.040;2024-01-06T03:06:18;100811.83;;;-1.97;76.18
84841;BME280;75088;53.114;18.040;2024-01-06T03:07:25;100814.32;;;-1.95;76.22
84841;BME280;75088;53.114;18.040;2024-01-06T03:08:31;100814.74;;;-1.93;76.06
84841;BME280;75088;53.114;18.040;2024-01-06T03:09:41;100817.91;;;-1.93;76.15
84841;BME280;75088;53.114;18.040;2024-01-06T03:10:47;100815.63;;;-1.93;75.89
84841;BME280;75088;53.114;18.040;2024-01-06T03:11:54;100819.50;;;-1.92;76.10
84841;BME280;75088;53.114;18.040;2024-01-06T03:13:01;100817.93;;;-1.92;75.99
84841;BME280;75088;53.114;18.040;2024-01-06T03:14:08;100819.67;;;-1.92;76.19
84841;BME280;75088;53.114;18.040;2024-01-06T03:15:15;100822.11;;;-1.92;76.34
84841;BME280;75088;53.114;18.040;2024-01-06T03:16:22;100820.20;;;-1.92;76.13
84841;BME280;75088;53.114;18.040;2024-01-06T03:17:29;100823.67;;;-1.92;76.37
84841;BME280;75088;53.114;18.040;2024-01-06T03:18:36;100825.75;;;-1.92;76.12
84841;BME280;75088;53.114;18.040;2024-01-06T03:19:43;100824.36;;;-1.92;76.25
84841;BME280;75088;53.114;18.040;2024-01-06T03:20:50;100827.34;;;-1.91;76.18
84841;BME280;75088;53.114;18.040;2024-01-06T03:21:57;100827.91;;;-1.90;76.05
84841;BME280;75088;53.114;18.040;2024-01-06T03:23:04;100826.41;;;-1.88;76.17
84841;BME280;75088;53.114;18.040;2024-01-06T03:24:11;100829.41;;;-1.87;76.19
84841;BME280;75088;53.114;18.040;2024-01-06T03:25:18;100828.38;;;-1.87;76.04
84841;BME280;75088;53.114;18.040;2024-01-06T03:26:25;100825.25;;;-1.87;75.95
84841;BME280;75088;53.114;18.040;2024-01-06T03:27:32;100828.39;;;-1.87;75.91
84841;BME280;75088;53.114;18.040;2024-01-06T03:28:39;100826.78;;;-1.88;76.13
84841;BME280;75088;53.114;18.040;2024-01-06T03:29:46;100827.77;;;-1.89;76.25
84841;BME280;75088;53.114;18.040;2024-01-06T03:30:53;100827.18;;;-1.91;75.99
84841;BME280;75088;53.114;18.040;2024-01-06T03:32:00;100826.29;;;-1.91;76.17
84841;BME280;75088;53.114;18.040;2024-01-06T03:33:07;100825.46;;;-1.90;76.04
84841;BME280;75088;53.114;18.040;2024-01-06T03:34:14;100823.38;;;-1.90;76.22
84841;BME280;75088;53.114;18.040;2024-01-06T03:35:21;100824.83;;;-1.89;76.20
84841;BME280;75088;53.114;18.040;2024-01-06T03:36:29;100826.50;;;-1.87;76.22
84841;BME280;75088;53.114;18.040;2024-01-06T03:37:36;100825.69;;;-1.85;76.07
84841;BME280;75088;53.114;18.040;2024-01-06T03:38:43;100825.55;;;-1.84;75.99
84841;BME280;75088;53.114;18.040;2024-01-06T03:39:50;100826.71;;;-1.85;75.93
84841;BME280;75088;53.114;18.040;2024-01-06T03:40:56;100821.78;;;-1.87;75.68
84841;BME280;75088;53.114;18.040;2024-01-06T03:42:04;100823.11;;;-1.88;75.59
84841;BME280;75088;53.114;18.040;2024-01-06T03:43:11;100825.15;;;-1.89;75.87
84841;BME280;75088;53.114;18.040;2024-01-06T03:44:17;100825.48;;;-1.90;75.95
84841;BME280;75088;53.114;18.040;2024-01-06T03:45:24;100824.23;;;-1.91;75.97
84841;BME280;75088;53.114;18.040;2024-01-06T03:46:32;100824.90;;;-1.92;76.20
84841;BME280;75088;53.114;18.040;2024-01-06T03:47:41;100824.53;;;-1.92;75.92
84841;BME280;75088;53.114;18.040;2024-01-06T03:48:48;100824.88;;;-1.92;75.86
84841;BME280;75088;53.114;18.040;2024-01-06T03:49:55;100820.20;;;-1.91;75.99
84841;BME280;75088;53.114;18.040;2024-01-06T03:51:03;100818.48;;;-1.91;75.80
84841;BME280;75088;53.114;18.040;2024-01-06T03:52:10;100815.52;;;-1.91;75.93
84841;BME280;75088;53.114;18.040;2024-01-06T03:53:17;100813.80;;;-1.90;76.12
84841;BME280;75088;53.114;18.040;2024-01-06T03:54:24;100813.26;;;-1.91;75.93
84841;BME280;75088;53.114;18.040;2024-01-06T03:55:31;100814.14;;;-1.91;75.81
84841;BME280;75088;53.114;18.040;2024-01-06T03:56:38;100818.95;;;-1.92;75.95
84841;BME280;75088;53.114;18.040;2024-01-06T03:57:44;100818.03;;;-1.94;75.89
84841;BME280;75088;53.114;18.040;2024-01-06T03:58:51;100821.25;;;-1.96;76.18
84841;BME280;75088;53.114;18.040;2024-01-06T03:59:58;100822.55;;;-1.98;75.95
84841;BME280;75088;53.114;18.040;2024-01-06T04:01:05;100822.84;;;-2.00;75.88
84841;BME280;75088;53.114;18.040;2024-01-06T04:02:12;100825.27;;;-2.00;75.89
84841;BME280;75088;53.114;18.040;2024-01-06T04:03:19;100828.25;;;-1.99;75.90
84841;BME280;75088;53.114;18.040;2024-01-06T04:04:26;100825.86;;;-1.98;75.93
84841;BME280;75088;53.114;18.040;2024-01-06T04:05:33;100823.51;;;-1.96;76.00
84841;BME280;75088;53.114;18.040;2024-01-06T04:06:40;100830.66;;;-1.96;75.72
84841;BME280;75088;53.114;18.040;2024-01-06T04:07:47;100829.48;;;-1.95;75.95
84841;BME280;75088;53.114;18.040;2024-01-06T04:08:54;100828.64;;;-1.94;76.14
84841;BME280;75088;53.114;18.040;2024-01-06T04:10:01;100829.71;;;-1.93;76.16
84841;BME280;75088;53.114;18.040;2024-01-06T04:11:10;100825.68;;;-1.94;75.78
84841;BME280;75088;53.114;18.040;2024-01-06T04:12:17;100828.63;;;-1.94;75.82
84841;BME280;75088;53.114;18.040;2024-01-06T04:13:24;100829.98;;;-1.95;76.18
84841;BME280;75088;53.114;18.040;2024-01-06T04:14:31;100829.11;;;-1.95;76.00
84841;BME280;75088;53.114;18.040;2024-01-06T04:15:40;100826.68;;;-1.95;75.87
84841;BME280;75088;53.114;18.040;2024-01-06T04:16:47;100830.06;;;-1.94;76.13
84841;BME280;75088;53.114;18.040;2024-01-06T04:17:54;100832.72;;;-1.92;76.19
84841;BME280;75088;53.114;18.040;2024-01-06T04:19:01;100837.95;;;-1.92;75.99
84841;BME280;75088;53.114;18.040;2024-01-06T04:20:12;100836.75;;;-1.92;75.86
84841;BME280;75088;53.114;18.040;2024-01-06T04:21:18;100838.64;;;-1.92;75.88
84841;BME280;75088;53.114;18.040;2024-01-06T04:22:25;100842.11;;;-1.92;76.10
84841;BME280;75088;53.114;18.040;2024-01-06T04:23:32;100844.34;;;-1.93;75.89
84841;BME280;75088;53.114;18.040;2024-01-06T04:24:39;100845.86;;;-1.94;75.99
84841;BME280;75088;53.114;18.040;2024-01-06T04:25:46;100852.50;;;-1.94;76.02
84841;BME280;75088;53.114;18.040;2024-01-06T04:26:53;100851.95;;;-1.94;75.96
84841;BME280;75088;53.114;18.040;2024-01-06T04:28:00;100851.45;;;-1.94;75.68
84841;BME280;75088;53.114;18.040;2024-01-06T04:29:10;100851.47;;;-1.94;75.88
84841;BME280;75088;53.114;18.040;2024-01-06T04:30:17;100853.59;;;-1.92;75.85
84841;BME280;75088;53.114;18.040;2024-01-06T04:31:26;100850.48;;;-1.91;75.71
84841;BME280;75088;53.114;18.040;2024-01-06T04:32:32;100850.91;;;-1.89;75.91
84841;BME280;75088;53.114;18.040;2024-01-06T04:33:40;100848.00;;;-1.88;75.81
84841;BME280;75088;53.114;18.040;2024-01-06T04:34:47;100849.81;;;-1.87;75.92
84841;BME280;75088;53.114;18.040;2024-01-06T04:35:54;100849.48;;;-1.86;75.91
84841;BME280;75088;53.114;18.040;2024-01-06T04:37:00;100850.04;;;-1.85;75.80
84841;BME280;75088;53.114;18.040;2024-01-06T04:38:07;100853.84;;;-1.86;75.63
84841;BME280;75088;53.114;18.040;2024-01-06T04:39:14;100854.81;;;-1.88;75.82
84841;BME280;75088;53.114;18.040;2024-01-06T04:40:21;100850.02;;;-1.90;75.60
84841;BME280;75088;53.114;18.040;2024-01-06T04:41:28;100854.51;;;-1.91;75.59
84841;BME280;75088;53.114;18.040;2024-01-06T04:42:35;100856.92;;;-1.92;75.60
84841;BME280;75088;53.114;18.040;2024-01-06T04:43:42;100855.89;;;-1.91;75.43
84841;BME280;75088;53.114;18.040;2024-01-06T04:44:49;100855.04;;;-1.91;75.49
84841;BME280;75088;53.114;18.040;2024-01-06T04:45:56;100860.30;;;-1.90;75.73
84841;BME280;75088;53.114;18.040;2024-01-06T04:47:04;100857.06;;;-1.88;75.80
84841;BME280;75088;53.114;18.040;2024-01-06T04:48:11;100855.73;;;-1.87;75.68
84841;BME280;75088;53.114;18.040;2024-01-06T04:49:18;100859.21;;;-1.87;75.53
84841;BME280;75088;53.114;18.040;2024-01-06T04:50:25;100855.87;;;-1.88;75.40
84841;BME280;75088;53.114;18.040;2024-01-06T04:51:32;100858.80;;;-1.88;75.31
84841;BME280;75088;53.114;18.040;2024-01-06T04:52:40;100856.12;;;-1.90;75.43
84841;BME280;75088;53.114;18.040;2024-01-06T04:53:48;100857.29;;;-1.91;75.49
84841;BME280;75088;53.114;18.040;2024-01-06T04:54:55;100863.17;;;-1.92;75.52
84841;BME280;75088;53.114;18.040;2024-01-06T04:56:01;100863.50;;;-1.93;75.89
84841;BME280;75088;53.114;18.040;2024-01-06T04:57:08;100862.40;;;-1.94;75.33
84841;BME280;75088;53.114;18.040;2024-01-06T04:58:16;100868.04;;;-1.93;75.67
84841;BME280;75088;53.114;18.040;2024-01-06T04:59:23;100867.20;;;-1.92;75.62
84841;BME280;75088;53.114;18.040;2024-01-06T05:00:30;100870.37;;;-1.90;75.36
84841;BME280;75088;53.114;18.040;2024-01-06T05:01:36;100868.84;;;-1.90;75.50
84841;BME280;75088;53.114;18.040;2024-01-06T05:02:43;100874.27;;;-1.89;75.70
84841;BME280;75088;53.114;18.040;2024-01-06T05:03:51;100875.46;;;-1.89;75.45
84841;BME280;75088;53.114;18.040;2024-01-06T05:04:58;100873.52;;;-1.90;75.54
84841;BME280;75088;53.114;18.040;2024-01-06T05:06:05;100876.61;;;-1.91;75.32
84841;BME280;75088;53.114;18.040;2024-01-06T05:07:14;100880.08;;;-1.92;75.54
84841;BME280;75088;53.114;18.040;2024-01-06T05:08:21;100879.90;;;-1.92;75.68
84841;BME280;75088;53.114;18.040;2024-01-06T05:09:30;100878.32;;;-1.93;75.48
84841;BME280;75088;53.114;18.040;2024-01-06T05:10:36;100883.70;;;-1.93;75.36
84841;BME280;75088;53.114;18.040;2024-01-06T05:11:46;100883.23;;;-1.91;75.60
84841;BME280;75088;53.114;18.040;2024-01-06T05:12:53;100879.56;;;-1.91;75.67
84841;BME280;75088;53.114;18.040;2024-01-06T05:14:00;100881.39;;;-1.89;75.48
84841;BME280;75088;53.114;18.040;2024-01-06T05:15:11;100879.48;;;-1.89;75.28
84841;BME280;75088;53.114;18.040;2024-01-06T05:16:18;100877.22;;;-1.89;75.19
84841;BME280;75088;53.114;18.040;2024-01-06T05:17:27;100875.34;;;-1.88;75.48
84841;BME280;75088;53.114;18.040;2024-01-06T05:18:34;100879.52;;;-1.88;75.45
84841;BME280;75088;53.114;18.040;2024-01-06T05:19:43;100876.02;;;-1.88;75.47
84841;BME280;75088;53.114;18.040;2024-01-06T05:20:51;100873.08;;;-1.88;75.56
84841;BME280;75088;53.114;18.040;2024-01-06T05:21:58;100876.17;;;-1.89;75.34
84841;BME280;75088;53.114;18.040;2024-01-06T05:23:05;100873.16;;;-1.90;75.61
84841;BME280;75088;53.114;18.040;2024-01-06T05:24:12;100875.56;;;-1.91;75.67
84841;BME280;75088;53.114;18.040;2024-01-06T05:25:19;100876.83;;;-1.90;75.52
84841;BME280;75088;53.114;18.040;2024-01-06T05:26:26;100869.89;;;-1.89;75.49
84841;BME280;75088;53.114;18.040;2024-01-06T05:27:33;100872.71;;;-1.88;75.45
84841;BME280;75088;53.114;18.040;2024-01-06T05:28:40;100872.92;;;-1.88;75.26
84841;BME280;75088;53.114;18.040;2024-01-06T05:29:47;100870.14;;;-1.88;75.53
84841;BME280;75088;53.114;18.040;2024-01-06T05:30:57;100876.58;;;-1.88;75.60
84841;BME280;75088;53.114;18.040;2024-01-06T05:32:04;100875.88;;;-1.88;75.35
84841;BME280;75088;53.114;18.040;2024-01-06T05:33:15;100876.20;;;-1.88;75.31
84841;BME280;75088;53.114;18.040;2024-01-06T05:34:22;100880.86;;;-1.89;75.15
84841;BME280;75088;53.114;18.040;2024-01-06T05:35:29;100880.67;;;-1.89;75.45
84841;BME280;75088;53.114;18.040;2024-01-06T05:36:36;100883.48;;;-1.89;75.53
84841;BME280;75088;53.114;18.040;2024-01-06T05:37:43;100886.73;;;-1.91;75.36
84841;BME280;75088;53.114;18.040;2024-01-06T05:38:51;100888.98;;;-1.91;75.12
84841;BME280;75088;53.114;18.040;2024-01-06T05:39:57;100887.27;;;-1.90;75.21
84841;BME280;75088;53.114;18.040;2024-01-06T05:41:06;100883.66;;;-1.89;75.37
84841;BME280;75088;53.114;18.040;2024-01-06T05:42:14;100879.70;;;-1.88;75.29
84841;BME280;75088;53.114;18.040;2024-01-06T05:43:21;100877.82;;;-1.87;75.48
84841;BME280;75088;53.114;18.040;2024-01-06T05:44:28;100877.01;;;-1.86;75.31
84841;BME280;75088;53.114;18.040;2024-01-06T05:45:35;100875.81;;;-1.85;75.38
84841;BME280;75088;53.114;18.040;2024-01-06T05:46:43;100879.46;;;-1.85;75.19
84841;BME280;75088;53.114;18.040;2024-01-06T05:47:50;100882.23;;;-1.86;75.24